Logo AVAMET
Benvolgut visitant, si us plau, ingressa Recuperar contrasenya
AVAMET paisatges

Inforatge Castelló de la Plana PortCastelló

Dades diàries. Acumulats / Últims 30 dies disponibles

Data Temperatura (°C) Humitat rel. (%) Pressió rel. (hPa) Vent (km/h) Precipitació
Mínima Mitjana Màxima Amplitud
tèrmica
Mínima Mitjana Màxima Mínima Mitjana Màxima Predom. Mitjana Ràfega
màxima
Total
(mm)
Índex-n
Mínima Mitjana Màxima Mínima Mitjana Màxima n
0 a 1
P0 max
mm 5'
Dades mensuals acumulades fins l'últim dia disponible
07/2020 20,8 22,1 24,4 25,5 26,5 28,4 29,6 8,8 45 76 88 1.011 1.017 1.022   8,3 40,2 2,4
Dades anuals acumulades fins l'últim dia disponible
2020 1,6 12,8 24,4 16,8 11,2 20,4 29,9 28,3 26 78 99 996 1.019 1.035   8,0 90,1 386,2
Últims 30 dies disponibles
14-07-2020 21,2     24,9     28,4 7,2 45 70 84 1.015 1.017 1.019 NW 4,8 22,5 1,6
13-07-2020 21,7     25,4     28,9 7,2 71 78 88 1.017 1.019 1.020 E 9,0 30,6 0,0
12-07-2020 21,6     24,6     27,8 6,2 69 80 86 1.017 1.019 1.021 NW 7,7 29,0 0,8
11-07-2020 22,8     25,6     27,3 4,5 63 76 87 1.015 1.018 1.020 ENE 11,7 40,2 0,0
10-07-2020 22,1     25,9     29,0 6,9 58 77 87 1.014 1.015 1.017 ENE 11,3 32,2 0,0
09-07-2020 22,7     25,9     29,0 6,3 68 79 86 1.015 1.017 1.018 E 7,4 32,2 0,0
08-07-2020 22,1     25,6     28,7 6,6 72 78 87 1.015 1.017 1.019 SE 6,4 38,6 0,0
07-07-2020 22,3     25,4     26,5 4,2 56 72 82 1.015 1.016 1.017 E 10,5 29,0 0,0
06-07-2020 21,4     25,8     29,6 8,2 64 74 79 1.015 1.017 1.018 E 4,7 19,3 0,0
05-07-2020 21,2     25,6     29,0 7,8 52 74 86 1.018 1.020 1.022 SE 6,6 20,9 0,0
04-07-2020 21,3     24,8     27,9 6,6 72 79 87 1.020 1.021 1.022 SE 6,1 25,7 0,0
03-07-2020 24,4     25,8     27,8 3,4 57 68 81 1.016 1.019 1.021 NNE 9,5 32,2 0,0
02-07-2020 24,0     26,2     27,8 3,8 73 80 87 1.012 1.014 1.016 ENE 14,0 35,4 0,0
01-07-2020 20,8     25,7     29,3 8,5 71 78 87 1.011 1.012 1.013 E 6,8 24,1 0,0
30-06-2020 22,1     25,1     28,3 6,2 74 82 91 1.012 1.015 1.017 SSO 7,9 24,1 0,0
29-06-2020 21,2     25,1     28,6 7,4 73 82 89 1.015 1.017 1.018 E 8,0 29,0 0,0
28-06-2020 20,4     25,1     28,4 8,0 72 77 83 1.017 1.017 1.019 SE 4,7 22,5 0,0
27-06-2020 20,4     25,1     29,0 8,6 59 75 87 1.014 1.015 1.017 SE 5,0 22,5 0,0
26-06-2020 19,3     24,9     29,8 10,5 47 66 79 1.013 1.015 1.017 E 5,1 20,9 0,6
25-06-2020 20,2     24,6     27,6 7,4 57 70 81 1.015 1.016 1.019 E 7,6 20,9 0,0
24-06-2020 19,1     24,1     27,6 8,5 68 76 86 1.016 1.018 1.019 SE 4,8 22,5 0,0
23-06-2020 20,2     24,4     27,3 7,1 67 76 85 1.017 1.019 1.021 SE 5,1 24,1 0,0
22-06-2020 21,5     24,6     27,6 6,1 60 77 89 1.020 1.021 1.023 ENE 7,4 33,8 0,0
21-06-2020 19,8     23,3     26,3 6,5 73 82 92 1.020 1.021 1.023 E 5,1 19,3 0,0
20-06-2020 18,6     22,5     25,4 6,8 77 84 91 1.020 1.021 1.022 ENE 7,2 29,0 0,0
19-06-2020 18,2     21,4     25,0 6,8 73 83 87 1.017 1.019 1.021 E 6,9 24,1 0,0
18-06-2020 17,6     20,6     22,3 4,7 69 79 86 1.014 1.015 1.017 ENE 11,7 41,8 0,0
17-06-2020 16,8     20,4     22,8 6,0 66 76 87 1.015 1.016 1.018 E 8,2 29,0 0,0
16-06-2020 18,6     20,8     22,9 4,3 73 81 88 1.016 1.017 1.019 ENE 11,3 46,7 1,4 0,20
15-06-2020 17,2     21,4     23,8 6,6 69 79 86 1.018 1.019 1.021 ENE 8,4 30,6 0,0
Últims 13 mesos disponibles
06/2020 14,0 18,2 22,1 22,4 21,9 25,7 29,8 15,8 44 74 84 1.004 1.015 1.021 E 7,6 51,5 41,2
05/2020 12,8 16,2 20,7 20,4 19,4 24,0 29,9 17,1 51 75 85 1.005 1.017 1.028 E 7,9 51,5 47,4
04/2020 7,5 12,4 17,2 15,7 14,1 19,1 28,0 20,5 53 82 93 1.005 1.016 1.026 E 7,5 51,5 132,6
03/2020 5,2 10,0 16,8 13,8 11,2 17,0 24,9 19,7 45 76 94 1.005 1.017 1.027 NE 11,3 77,2 106,0
02/2020 5,4 8,8 12,8 13,5 14,6 17,8 25,2 19,8 58 80 91 1.012 1.025 1.033 NW 4,9 53,1 0,6
01/2020 1,6 6,5 13,4 10,6 11,3 15,1 22,0 20,4 67 81 95 1.018 1.025 1.032 NW 8,2 90,1 56,0
12/2019 4,1 9,3 17,8 13,5 13,6 17,5 26,3 22,2 47 77 95 1.001 1.018 1.033 WNW 8,1 78,9 151,0
11/2019 5,6 11,6 19,6 15,7 14,9 19,8 27,6 22,0 42 59 85 996 1.009 1.018 SW 9,1 74,0 4,8
10/2019 10,9 15,7 21,0 19,8 17,3 23,8 28,3 17,4 51 75 90 1.006 1.016 1.022 NW 6,2 48,3 18,6
09/2019 14,6 19,9 22,3 23,5 23,4 26,6 30,9 16,3 0 72 89 0 950 1.026 SO 9,7 74,1 54,8
07/2019 20,2 21,9 23,3 26,1 27,3 29,3 32,6 12,4 54 75 86 1.006 1.015 1.022 SSO 7,3 48,3 13,0
06/2019 12,3 17,7 22,0 21,8 21,3 25,0 33,1 20,8 52 74 87 1.008 1.016 1.022 SSE 8,9 59,6 0,0
05/2019 8,8 14,0 18,1 17,9 17,3 21,5 28,4 19,6 54 74 86 1.005 1.016 1.025 S 8,0 53,7 13,0
Tots els anys disponibles
2019 2,7 13,5 25,2 17,8 11,9 21,6 33,1 30,4 0 71 98 0 1.010 1.033 SO 8,1 95,0 288,6
Temperatura (°C)
Humitat relativa (%)
Velocitat del vent i ràfega màxima (km/h)
Direcció del vent (°)
Pressió (hPa)
Precipitació (mm)
Nota sobre les dades: s'avisa a l'usuari de la provisionalitat i no oficialitat d'aquestes dades
Logo AVAMET blanc
Web allotjada a Sollutia
Llicència de Creative CommonsLa web d'AVAMET i els seus continguts estan subjectes a una llicència de
Reconeixement - No Comercial - Compartir igual
Últimes estacions: Vilamarxant - La Pedrera (Soci), Càlig (Ajuntament Soci), Quesa - Hotel La Rocha (Soci), Agres - Les Eres (Soci), la Vilavella - Ptda Forns (Soci), Miramar - Platja (Inforatge), San Fulgencio - Centre & San Fulgencio - Urb. La Marina (MeteOrihuela), Ontinyent - els Gínjols (Soci), Orba (Aj. Soci) - - -